Pagrindinis puslapis
METAR-TAF:

METAR-TAF

Oro uostai :

Letisija, Kolumbija

platuma: 04-10S, ilguma: 069-57W, Aukštis: 84 m

Dabartinis oras

Ataskaita buvo paskelbta 50 minutes, ne 18:00 UTC
Vėjas 5 kt iš Pietvakarių
Temperatūra 31°C
Drėgmė 79%
Slėgis 1011 hPa
Matomumas 10 km arba daugiau
Išsisklaidę debesys ne aukštis 1300 ft
Su prošvaistėmis ne aukštis 1700 ft

METAR: SKLT 251800Z 22005KT 9999 SCT013 BKN017 31/27 A2984

Laikas: 13:50 (18:50 UTC)

Prognozė

Ataskaita buvo paskelbta 2 valandos ir 20 minutes, ne 16:30 UTC
Prognozė galioja nuo 25 metu 18 UTC su 26 metu 18 UTC
Vėjas 3 kt nuo kintamojo kryptimis
Matomumas 10 km arba daugiau
Išsisklaidę debesys ne aukštis 1500 ft
Išsisklaidę debesys ne aukštis 9000 ft
Laikinai
nuo 25 metu 19 UTC su 25 metu 23 UTC
Matomumas: 4000 m
Išsisklaidę debesys ne aukštis 1200 ft, Liūtiniai kamuoliniai debesys.
Išsisklaidę debesys ne aukštis 1500 ft
perkūnija, lietus

TAF: SKLT 251630Z 2518/2618 VRB03KT 9999 SCT015 SCT090 TEMPO 2519/2523 4000 TSRA SCT012CB SCT015 TX29/2518Z TN23/2611Z

Orai ataskaitas ir orų prognozės (METAR, TAF).

turimą stotys yra geltonos ir raudonos taškus žemėlapyje.

Perkelti pele per norėdami pamatyti stoties vardą.

Tada spustelėkite, norėdami matyti oro stebėjimo ir prognozės.

Norėdami pakeisti žemėlapį: spustelėkite ant žalios mygtukų su juodo kryžiaus žemyn,; žalią mygtuką su brūkšneliu, jei norite nutolinti; arba žalių rodyklių gretimoms žemėlapius.


METAR-TAF: